createdAt,value
2019-05-15T00:00:28.833Z,89.50
2019-05-15T00:01:30.747Z,90.60
2019-05-15T00:02:33.386Z,88.40
2019-05-15T00:03:38.802Z,88.20
2019-05-15T00:04:40.309Z,89.10
2019-05-15T00:05:42.836Z,89.10
2019-05-15T00:06:45.283Z,88.60
2019-05-15T00:07:48.407Z,90.00
2019-05-15T00:08:51.148Z,90.10
2019-05-15T00:09:53.807Z,89.40
2019-05-15T00:10:58.688Z,90.70
2019-05-15T00:12:01.581Z,89.70
2019-05-15T00:13:04.521Z,90.50
2019-05-15T00:14:08.694Z,90.40
2019-05-15T00:15:13.446Z,90.70
2019-05-15T00:16:18.007Z,90.50
2019-05-15T00:17:20.482Z,89.90
2019-05-15T00:18:22.923Z,90.50
2019-05-15T00:19:25.378Z,90.80
2019-05-15T00:20:29.495Z,90.10
2019-05-15T00:21:32.233Z,90.80
2019-05-15T00:22:34.835Z,90.70
2019-05-15T00:23:38.723Z,91.70
2019-05-15T00:24:41.677Z,90.60
2019-05-15T00:25:44.232Z,90.60
2019-05-15T00:26:48.083Z,90.80
2019-05-15T00:27:51.056Z,90.70
2019-05-15T00:29:08.522Z,91.80
2019-05-15T00:29:59.647Z,92.20
2019-05-15T00:31:02.088Z,92.00
2019-05-15T00:32:04.746Z,90.50
2019-05-15T00:33:08.893Z,89.70
2019-05-15T00:34:12.753Z,90.40
2019-05-15T00:35:15.678Z,90.80
2019-05-15T00:36:19.175Z,90.00
2019-05-15T00:37:21.898Z,91.30
2019-05-15T00:38:24.618Z,90.80
2019-05-15T00:39:28.364Z,91.00
2019-05-15T00:40:31.085Z,90.40
2019-05-15T00:41:46.647Z,91.10
2019-05-15T00:42:38.427Z,91.10
2019-05-15T00:43:41.325Z,91.60
2019-05-15T00:44:43.759Z,90.50
2019-05-15T00:45:48.677Z,90.70
2019-05-15T00:46:50.542Z,93.00
2019-05-15T00:47:53.034Z,92.00
2019-05-15T00:48:55.576Z,91.40
2019-05-15T00:49:59.843Z,91.60
2019-05-15T00:51:02.283Z,91.30
2019-05-15T00:52:04.776Z,92.70
2019-05-15T00:53:08.646Z,91.00
2019-05-15T00:54:11.343Z,90.80
2019-05-15T00:55:14.419Z,92.00
2019-05-15T00:56:19.248Z,92.20
2019-05-15T00:57:21.210Z,91.50
2019-05-15T00:58:23.687Z,91.70
2019-05-15T00:59:29.724Z,91.40
2019-05-15T01:00:41.780Z,91.10
2019-05-15T01:01:44.309Z,91.30
2019-05-15T01:02:48.652Z,92.00
2019-05-15T01:03:52.222Z,92.30
2019-05-15T01:04:54.709Z,91.40
2019-05-15T01:05:58.632Z,91.70
2019-05-15T01:07:01.387Z,90.80
2019-05-15T01:08:04.926Z,91.30
2019-05-15T01:09:08.321Z,92.00
2019-05-15T01:10:11.378Z,91.50
2019-05-15T01:11:14.065Z,91.80
2019-05-15T01:12:18.478Z,91.50
2019-05-15T01:13:21.257Z,91.50
2019-05-15T01:14:24.096Z,91.50
2019-05-15T01:15:28.891Z,91.90
2019-05-15T01:16:31.042Z,91.90
2019-05-15T01:17:33.511Z,91.20
2019-05-15T01:18:38.315Z,91.40
2019-05-15T01:19:41.964Z,90.30
2019-05-15T01:20:49.098Z,91.80
2019-05-15T01:21:51.026Z,92.20
2019-05-15T01:22:53.579Z,91.00
2019-05-15T01:23:56.113Z,91.30
2019-05-15T01:24:58.972Z,89.30
2019-05-15T01:26:01.762Z,90.20
2019-05-15T01:27:04.167Z,89.60
2019-05-15T01:28:09.085Z,90.50
2019-05-15T01:29:11.037Z,89.70
2019-05-15T01:30:14.107Z,90.60
2019-05-15T01:31:18.915Z,91.20
2019-05-15T01:32:20.914Z,91.50
2019-05-15T01:33:23.334Z,91.40
2019-05-15T01:34:25.766Z,91.10
2019-05-15T01:35:28.754Z,90.90
2019-05-15T01:36:31.481Z,91.50
2019-05-15T01:37:34.058Z,90.80
2019-05-15T01:38:38.624Z,91.90
2019-05-15T01:39:40.917Z,91.40
2019-05-15T01:40:43.270Z,93.30
2019-05-15T01:41:49.342Z,91.50
2019-05-15T01:42:50.262Z,91.70
2019-05-15T01:43:52.703Z,92.20
2019-05-15T01:44:55.149Z,91.00
2019-05-15T01:45:58.857Z,90.80
2019-05-15T01:47:01.753Z,90.40
2019-05-15T01:48:04.227Z,92.50
2019-05-15T01:49:08.019Z,92.80
2019-05-15T01:50:11.844Z,91.30
2019-05-15T01:51:14.477Z,91.70
2019-05-15T01:52:18.720Z,90.60
2019-05-15T01:53:21.479Z,91.20
2019-05-15T01:54:25.147Z,91.60
2019-05-15T01:55:28.382Z,91.10
2019-05-15T01:56:31.028Z,91.10
2019-05-15T01:57:33.462Z,90.70
2019-05-15T01:58:38.008Z,90.90
2019-05-15T01:59:53.860Z,91.70
2019-05-15T02:00:44.659Z,91.60
2019-05-15T02:01:48.476Z,90.50
2019-05-15T02:02:51.310Z,91.20
2019-05-15T02:03:53.866Z,90.90
2019-05-15T02:04:58.975Z,92.10
2019-05-15T02:06:00.686Z,92.00
2019-05-15T02:07:03.172Z,92.00
2019-05-15T02:08:08.011Z,92.40
2019-05-15T02:09:10.067Z,92.70
2019-05-15T02:10:12.762Z,92.00
2019-05-15T02:11:15.303Z,92.30
2019-05-15T02:12:19.127Z,92.50
2019-05-15T02:13:21.832Z,92.10
2019-05-15T02:14:24.481Z,91.70
2019-05-15T02:15:28.559Z,91.40
2019-05-15T02:16:31.293Z,91.40
2019-05-15T02:17:33.754Z,91.70
2019-05-15T02:18:36.187Z,92.00
2019-05-15T02:19:39.176Z,92.20
2019-05-15T02:20:42.009Z,91.70
2019-05-15T02:21:44.581Z,91.50
2019-05-15T02:22:48.521Z,92.20
2019-05-15T02:23:51.292Z,92.70
2019-05-15T02:24:53.936Z,91.80
2019-05-15T02:25:58.732Z,91.80
2019-05-15T02:27:00.830Z,92.60
2019-05-15T02:28:03.345Z,91.80
2019-05-15T02:29:07.834Z,91.70
2019-05-15T02:30:22.570Z,90.70
2019-05-15T02:31:14.798Z,90.90
2019-05-15T02:32:19.343Z,91.70
2019-05-15T02:33:21.706Z,91.50
2019-05-15T02:34:24.267Z,92.00
2019-05-15T02:35:29.639Z,91.40
2019-05-15T02:36:31.063Z,90.90
2019-05-15T02:37:33.632Z,90.90
2019-05-15T02:38:40.432Z,91.70
2019-05-15T02:39:40.512Z,91.90
2019-05-15T02:40:42.963Z,91.40
2019-05-15T02:41:48.784Z,91.80
2019-05-15T02:42:49.912Z,91.90
2019-05-15T02:43:52.516Z,93.00
2019-05-15T02:44:55.133Z,92.50
2019-05-15T02:46:00.125Z,92.70
2019-05-15T02:47:01.928Z,92.70
2019-05-15T02:48:08.583Z,92.30
2019-05-15T02:49:09.946Z,92.30
2019-05-15T02:50:12.811Z,92.90
2019-05-15T02:51:15.359Z,93.40
2019-05-15T02:52:19.885Z,91.40
2019-05-15T02:53:22.372Z,91.30
2019-05-15T02:54:24.820Z,91.40
2019-05-15T02:55:29.705Z,91.10
2019-05-15T02:56:31.616Z,91.60
2019-05-15T02:57:34.247Z,91.50
2019-05-15T02:58:39.527Z,92.20
2019-05-15T02:59:41.071Z,92.30
2019-05-15T03:00:49.600Z,92.50
2019-05-15T03:01:49.712Z,91.90
2019-05-15T03:02:54.145Z,92.20
2019-05-15T03:03:59.445Z,91.70
2019-05-15T03:05:01.111Z,92.10
2019-05-15T03:06:04.824Z,91.90
2019-05-15T03:07:09.672Z,91.80
2019-05-15T03:08:13.484Z,92.20
2019-05-15T03:09:18.521Z,92.30
2019-05-15T03:10:20.299Z,92.00
2019-05-15T03:11:22.851Z,92.60
2019-05-15T03:12:25.287Z,92.50
2019-05-15T03:13:29.861Z,92.00
2019-05-15T03:14:32.311Z,92.00
2019-05-15T03:15:39.731Z,92.40
2019-05-15T03:16:40.906Z,92.60
2019-05-15T03:17:43.575Z,92.00
2019-05-15T03:18:46.207Z,91.90
2019-05-15T03:19:49.728Z,93.00
2019-05-15T03:20:52.635Z,92.50
2019-05-15T03:21:55.099Z,92.10
2019-05-15T03:22:59.766Z,92.40
2019-05-15T03:24:03.728Z,91.50
2019-05-15T03:25:10.171Z,91.30
2019-05-15T03:26:11.111Z,91.30
2019-05-15T03:27:13.547Z,91.00
2019-05-15T03:28:19.097Z,91.80
2019-05-15T03:29:21.194Z,92.20
2019-05-15T03:30:24.259Z,92.20
2019-05-15T03:31:47.731Z,91.80
2019-05-15T03:32:42.163Z,91.20
2019-05-15T03:33:37.340Z,91.80
2019-05-15T03:34:46.782Z,91.00
2019-05-15T03:35:44.952Z,91.50
2019-05-15T03:36:52.971Z,90.40
2019-05-15T03:37:52.096Z,91.40
2019-05-15T03:38:54.654Z,92.20
2019-05-15T03:39:59.619Z,91.40
2019-05-15T03:41:01.535Z,92.40
2019-05-15T03:42:03.974Z,91.30
2019-05-15T03:43:09.133Z,90.50
2019-05-15T03:44:11.087Z,91.10
2019-05-15T03:45:13.558Z,91.70
2019-05-15T03:46:19.676Z,92.00
2019-05-15T03:47:20.599Z,91.60
2019-05-15T03:48:23.115Z,92.00
2019-05-15T03:49:25.790Z,91.80
2019-05-15T03:50:29.116Z,91.70
2019-05-15T03:51:31.795Z,91.30
2019-05-15T03:52:34.213Z,91.20
2019-05-15T03:53:39.900Z,91.20
2019-05-15T03:54:41.091Z,91.50
2019-05-15T03:55:43.566Z,92.70
2019-05-15T03:56:49.519Z,91.90
2019-05-15T03:57:50.342Z,91.10
2019-05-15T03:58:52.780Z,91.90
2019-05-15T03:59:55.260Z,91.10
2019-05-15T04:01:00.270Z,91.30
2019-05-15T04:02:02.179Z,92.50
2019-05-15T04:03:04.686Z,92.90
2019-05-15T04:04:09.600Z,92.70
2019-05-15T04:05:12.409Z,92.30
2019-05-15T04:06:14.943Z,93.10
2019-05-15T04:07:18.864Z,92.70
2019-05-15T04:08:24.020Z,92.50
2019-05-15T04:09:29.424Z,92.00
2019-05-15T04:10:30.884Z,92.00
2019-05-15T04:11:33.317Z,93.40
2019-05-15T04:12:35.798Z,93.90
2019-05-15T04:13:39.743Z,92.90
2019-05-15T04:14:42.626Z,93.30
2019-05-15T04:15:45.863Z,94.50
2019-05-15T04:16:49.704Z,93.40
2019-05-15T04:17:52.711Z,93.60
2019-05-15T04:18:55.293Z,93.80
2019-05-15T04:19:58.873Z,93.70
2019-05-15T04:21:01.553Z,94.50
2019-05-15T04:22:04.070Z,93.80
2019-05-15T04:23:09.798Z,94.20
2019-05-15T04:24:11.387Z,94.40
2019-05-15T04:25:14.427Z,93.50
2019-05-15T04:26:19.473Z,92.00
2019-05-15T04:27:23.074Z,91.90
2019-05-15T04:28:29.305Z,93.60
2019-05-15T04:29:31.059Z,93.50
2019-05-15T04:30:33.534Z,94.50
2019-05-15T04:31:51.778Z,94.20
2019-05-15T04:32:40.615Z,94.30
2019-05-15T04:33:43.245Z,93.90
2019-05-15T04:34:48.771Z,95.00
2019-05-15T04:35:50.005Z,95.20
2019-05-15T04:36:52.527Z,94.70
2019-05-15T04:37:54.971Z,95.40
2019-05-15T04:38:58.712Z,94.10
2019-05-15T04:40:01.231Z,94.70
2019-05-15T04:41:04.776Z,94.20
2019-05-15T04:42:08.227Z,94.60
2019-05-15T04:43:11.291Z,94.50
2019-05-15T04:44:14.143Z,94.90
2019-05-15T04:45:19.197Z,94.70
2019-05-15T04:46:20.963Z,94.70
2019-05-15T04:47:23.403Z,94.40
2019-05-15T04:48:28.749Z,94.40
2019-05-15T04:49:30.303Z,93.40
2019-05-15T04:50:32.731Z,93.90
2019-05-15T04:51:35.190Z,94.70
2019-05-15T04:52:39.394Z,94.00
2019-05-15T04:53:41.978Z,93.30
2019-05-15T04:54:44.734Z,93.50
2019-05-15T04:55:49.178Z,94.90
2019-05-15T04:56:51.488Z,93.80
2019-05-15T04:57:54.033Z,95.00
2019-05-15T04:58:59.861Z,95.40
2019-05-15T05:00:00.953Z,93.70
2019-05-15T05:01:03.394Z,93.70
2019-05-15T05:02:26.519Z,94.10
2019-05-15T05:03:10.251Z,96.20
2019-05-15T05:04:12.792Z,94.50
2019-05-15T05:05:15.520Z,92.80
2019-05-15T05:06:19.163Z,92.90
2019-05-15T05:07:22.405Z,93.70
2019-05-15T05:08:24.937Z,92.20
2019-05-15T05:09:28.845Z,93.40
2019-05-15T05:10:31.694Z,92.90
2019-05-15T05:11:34.576Z,93.60
2019-05-15T05:12:40.998Z,93.40
2019-05-15T05:13:41.371Z,92.10
2019-05-15T05:14:43.875Z,92.60
2019-05-15T05:15:46.315Z,91.20
2019-05-15T05:16:49.098Z,90.40
2019-05-15T05:17:51.815Z,88.60
2019-05-15T05:18:54.260Z,84.90
2019-05-15T05:19:58.339Z,79.40
2019-05-15T05:21:02.887Z,74.40
2019-05-15T05:22:07.726Z,67.30
2019-05-15T05:23:09.730Z,62.50
2019-05-15T05:24:12.314Z,59.60
2019-05-15T05:25:14.744Z,55.30
2019-05-15T05:26:18.508Z,55.00
2019-05-15T05:27:21.173Z,53.80
2019-05-15T05:28:23.626Z,54.20
2019-05-15T05:29:28.035Z,52.80
2019-05-15T05:30:30.712Z,52.20
2019-05-15T05:31:33.166Z,51.70
2019-05-15T05:32:38.781Z,51.10
2019-05-15T05:33:41.226Z,49.40
2019-05-15T05:34:43.681Z,46.70
2019-05-15T05:35:48.470Z,46.00
2019-05-15T05:36:50.794Z,45.40
2019-05-15T05:37:53.312Z,45.70
2019-05-15T05:38:58.308Z,43.60
2019-05-15T05:40:00.447Z,43.40
2019-05-15T05:41:02.870Z,44.10
2019-05-15T05:42:05.331Z,44.30
2019-05-15T05:43:09.497Z,44.30
2019-05-15T05:44:12.321Z,45.20
2019-05-15T05:45:18.158Z,46.40
2019-05-15T05:46:20.470Z,47.20
2019-05-15T05:47:22.936Z,47.70
2019-05-15T05:48:25.349Z,49.10
2019-05-15T05:49:28.825Z,50.30
2019-05-15T05:50:43.896Z,51.50
2019-05-15T05:51:45.137Z,53.80
2019-05-15T05:52:49.053Z,55.20
2019-05-15T05:53:51.746Z,57.00
2019-05-15T05:54:54.210Z,58.30
2019-05-15T05:55:58.056Z,59.50
2019-05-15T05:57:00.881Z,59.60
2019-05-15T05:58:03.680Z,60.70
2019-05-15T05:59:06.126Z,61.60
2019-05-15T06:00:09.522Z,62.20
2019-05-15T06:01:12.233Z,62.20
2019-05-15T06:02:14.679Z,64.10
2019-05-15T06:03:19.566Z,64.50
2019-05-15T06:04:21.622Z,63.70
2019-05-15T06:05:24.088Z,65.40
2019-05-15T06:06:29.089Z,66.70
2019-05-15T06:07:30.955Z,67.10
2019-05-15T06:08:33.410Z,65.60
2019-05-15T06:09:37.930Z,66.70
2019-05-15T06:10:40.236Z,66.00
2019-05-15T06:11:42.690Z,65.20
2019-05-15T06:12:45.169Z,64.50
2019-05-15T06:13:52.256Z,64.60
2019-05-15T06:14:52.434Z,66.20
2019-05-15T06:15:55.229Z,65.90
2019-05-15T06:16:58.907Z,65.30
2019-05-15T06:18:01.594Z,66.60
2019-05-15T06:19:04.128Z,65.70
2019-05-15T06:20:08.586Z,65.70
2019-05-15T06:21:11.196Z,66.20
2019-05-15T06:22:14.789Z,65.90
2019-05-15T06:23:23.167Z,67.20
2019-05-15T06:24:21.800Z,66.70
2019-05-15T06:25:30.228Z,65.90
2019-05-15T06:26:30.669Z,65.00
2019-05-15T06:27:39.121Z,65.50
2019-05-15T06:28:41.923Z,65.50
2019-05-15T06:29:44.404Z,65.50
2019-05-15T06:30:48.592Z,67.20
2019-05-15T06:31:51.196Z,65.70
2019-05-15T06:33:08.252Z,66.30
2019-05-15T06:33:59.026Z,66.50
2019-05-15T06:35:01.522Z,65.40
2019-05-15T06:36:03.965Z,65.90
2019-05-15T06:37:08.358Z,65.50
2019-05-15T06:38:13.182Z,65.70
2019-05-15T06:39:17.801Z,65.20
2019-05-15T06:40:20.255Z,67.30
2019-05-15T06:41:22.694Z,66.00
2019-05-15T06:42:28.353Z,66.00
2019-05-15T06:43:31.197Z,65.50
2019-05-15T06:44:33.669Z,63.50
2019-05-15T06:48:18.695Z,63.80
2019-05-15T06:49:39.959Z,63.10
2019-05-15T06:50:43.216Z,60.20
2019-05-15T06:51:45.671Z,59.30
2019-05-15T06:52:49.923Z,59.90
2019-05-15T06:53:52.379Z,59.30
2019-05-15T06:54:56.518Z,57.90
2019-05-15T06:55:59.807Z,57.80
2019-05-15T06:57:02.342Z,57.40
2019-05-15T06:58:04.794Z,56.30
2019-05-15T06:59:08.724Z,56.40
2019-05-15T07:00:11.696Z,56.10
2019-05-15T07:08:05.521Z,53.10
2019-05-15T07:09:09.527Z,51.90
2019-05-15T07:10:13.499Z,50.90
2019-05-15T07:11:15.948Z,50.00
2019-05-15T07:12:18.764Z,49.30
2019-05-15T07:13:21.491Z,49.00
2019-05-15T07:14:24.390Z,47.80
2019-05-15T07:15:27.823Z,48.70
2019-05-15T07:16:30.920Z,49.50
2019-05-15T07:17:34.515Z,49.70
2019-05-15T07:18:39.070Z,50.40
2019-05-15T07:19:41.341Z,50.40
2019-05-15T07:20:43.924Z,51.10
2019-05-15T07:21:48.512Z,50.40
2019-05-15T07:22:50.761Z,49.20
2019-05-15T07:23:53.315Z,48.30
2019-05-15T07:24:58.035Z,50.10
2019-05-15T07:26:00.145Z,50.30
2019-05-15T07:27:02.618Z,49.30
2019-05-15T07:28:05.397Z,50.00
2019-05-15T07:29:07.968Z,49.50
2019-05-15T07:30:12.100Z,48.90
2019-05-15T07:31:14.976Z,48.10
2019-05-15T07:32:19.216Z,49.00
2019-05-15T07:33:35.827Z,48.40
2019-05-15T07:34:28.506Z,49.80
2019-05-15T07:35:31.246Z,48.80
2019-05-15T07:36:33.729Z,48.40
2019-05-15T07:37:38.460Z,49.00
2019-05-15T07:38:41.336Z,48.60
2019-05-15T07:39:43.884Z,49.00
2019-05-15T07:40:51.724Z,50.50
2019-05-15T07:42:53.436Z,48.00
2019-05-15T07:43:58.404Z,47.70
2019-05-15T07:45:00.306Z,48.20
2019-05-15T07:46:02.743Z,49.90
2019-05-15T07:47:05.519Z,50.70
2019-05-15T07:48:09.837Z,49.70
2019-05-15T07:49:12.422Z,48.40
2019-05-15T07:50:15.971Z,48.00
2019-05-15T07:51:18.539Z,49.00
2019-05-15T07:52:21.068Z,49.50
2019-05-15T07:53:23.557Z,49.40
2019-05-15T07:54:26.002Z,51.00
2019-05-15T07:55:29.635Z,49.30
2019-05-15T07:56:32.473Z,49.80
2019-05-15T07:57:34.917Z,48.70
2019-05-15T07:58:38.607Z,48.00
2019-05-15T07:59:41.407Z,48.00
2019-05-15T08:00:43.919Z,48.10
2019-05-15T08:01:48.758Z,48.80
2019-05-15T08:02:50.936Z,48.70
2019-05-15T08:04:01.548Z,48.40
2019-05-15T08:05:00.583Z,49.30
2019-05-15T08:06:04.236Z,48.70
2019-05-15T08:07:09.136Z,49.00
2019-05-15T08:08:12.145Z,47.70
2019-05-15T08:09:17.847Z,46.80
2019-05-15T08:10:21.311Z,47.50
2019-05-15T08:11:24.906Z,46.00
2019-05-15T08:12:28.368Z,46.10
2019-05-15T08:13:30.886Z,45.80
2019-05-15T08:14:33.561Z,45.80
2019-05-15T08:15:37.988Z,46.10
2019-05-15T08:16:40.277Z,44.60
2019-05-15T08:18:00.136Z,45.10
2019-05-15T08:18:48.400Z,46.30
2019-05-15T08:19:51.122Z,44.70
2019-05-15T08:20:53.581Z,44.30
2019-05-15T08:21:58.185Z,43.50
2019-05-15T08:23:00.513Z,43.40
2019-05-15T08:24:03.276Z,44.00
2019-05-15T08:25:13.083Z,44.10
2019-05-15T08:26:15.242Z,44.00
2019-05-15T08:27:19.583Z,43.60
2019-05-15T08:28:22.035Z,44.40
2019-05-15T08:29:24.490Z,44.10
2019-05-15T08:30:28.844Z,44.80
2019-05-15T08:31:31.503Z,42.90
2019-05-15T08:32:34.022Z,42.90
2019-05-15T08:33:38.710Z,44.80
2019-05-15T08:34:40.938Z,43.20
2019-05-15T08:35:47.781Z,43.50
2019-05-15T08:36:48.453Z,43.30
2019-05-15T08:37:51.148Z,42.40
2019-05-15T08:38:53.599Z,43.50
2019-05-15T08:39:56.073Z,42.50
2019-05-15T08:40:59.281Z,43.20
2019-05-15T08:42:02.121Z,43.00
2019-05-15T08:43:05.623Z,43.10
2019-05-15T08:44:08.742Z,42.60
2019-05-15T08:45:12.002Z,43.10
2019-05-15T08:46:14.467Z,43.70
2019-05-15T08:47:19.155Z,43.10
2019-05-15T08:48:21.334Z,44.00
2019-05-15T08:49:28.243Z,43.50
2019-05-15T08:50:30.521Z,42.80
2019-05-15T08:51:34.107Z,41.70
2019-05-15T08:52:39.077Z,42.80
2019-05-15T08:53:41.176Z,43.00
2019-05-15T08:54:43.678Z,43.60
2019-05-15T08:55:48.126Z,42.10
2019-05-15T08:56:50.675Z,43.00
2019-05-15T08:58:05.782Z,41.60
2019-05-15T08:59:01.053Z,42.20
2019-05-15T09:00:03.942Z,41.60
2019-05-15T09:01:09.441Z,42.30
2019-05-15T09:02:11.003Z,42.30
2019-05-15T09:03:13.648Z,40.90
2019-05-15T09:04:27.909Z,41.50
2019-05-15T09:05:20.863Z,41.20
2019-05-15T09:06:23.404Z,41.80
2019-05-15T09:07:28.594Z,41.50
2019-05-15T09:08:30.631Z,41.80
2019-05-15T09:09:33.781Z,40.80
2019-05-15T09:10:38.497Z,41.50
2019-05-15T09:11:40.718Z,41.70
2019-05-15T09:12:43.132Z,41.00
2019-05-15T09:13:45.973Z,40.90
2019-05-15T09:14:48.746Z,40.20
2019-05-15T09:15:51.996Z,40.40
2019-05-15T09:16:54.432Z,40.40
2019-05-15T09:18:09.168Z,40.70
2019-05-15T09:19:01.335Z,41.60
2019-05-15T09:20:04.506Z,41.60
2019-05-15T09:21:08.798Z,41.10
2019-05-15T09:22:11.625Z,40.90
2019-05-15T09:23:14.099Z,41.70
2019-05-15T09:24:16.547Z,41.60
2019-05-15T09:25:19.592Z,41.90
2019-05-15T09:26:22.196Z,41.60
2019-05-15T09:27:24.669Z,41.80
2019-05-15T09:28:29.704Z,42.50
2019-05-15T09:29:31.496Z,42.40
2019-05-15T09:30:34.091Z,42.00
2019-05-15T09:31:38.989Z,40.40
2019-05-15T09:32:40.956Z,40.70
2019-05-15T09:33:43.415Z,40.80
2019-05-15T09:34:51.777Z,40.70
2019-05-15T09:35:53.732Z,40.70
2019-05-15T09:36:56.187Z,40.20
2019-05-15T09:37:58.758Z,40.60
2019-05-15T09:39:01.216Z,40.60
2019-05-15T09:40:04.212Z,41.10
2019-05-15T09:41:09.004Z,40.10
2019-05-15T09:42:12.187Z,40.00
2019-05-15T09:43:14.628Z,40.10
2019-05-15T09:44:21.327Z,40.60
2019-05-15T09:45:21.539Z,40.70
2019-05-15T09:46:23.988Z,40.60
2019-05-15T09:47:26.488Z,40.50
2019-05-15T09:48:29.712Z,39.30
2019-05-15T09:49:32.166Z,39.80
2019-05-15T09:50:34.597Z,39.70
2019-05-15T09:51:38.868Z,40.30
2019-05-15T09:52:41.300Z,40.90
2019-05-15T09:53:48.233Z,42.20
2019-05-15T09:54:49.991Z,42.20
2019-05-15T09:55:52.643Z,43.10
2019-05-15T09:56:55.102Z,43.00
2019-05-15T09:57:59.076Z,43.30
2019-05-15T09:59:01.689Z,43.90
2019-05-15T10:00:04.708Z,43.00
2019-05-15T10:01:08.476Z,42.90
2019-05-15T10:02:11.359Z,43.30
2019-05-15T10:03:13.937Z,43.50
2019-05-15T10:04:18.781Z,44.80
2019-05-15T10:05:21.073Z,43.90
2019-05-15T10:06:23.616Z,44.40
2019-05-15T10:07:28.437Z,44.90
2019-05-15T10:08:44.672Z,45.10
2019-05-15T10:09:48.751Z,45.60
2019-05-15T10:10:52.353Z,45.80
2019-05-15T10:11:54.819Z,46.30
2019-05-15T10:12:59.448Z,46.10
2019-05-15T10:14:01.796Z,46.10
2019-05-15T10:15:04.806Z,46.60
2019-05-15T10:16:08.414Z,46.20
2019-05-15T10:17:11.352Z,45.60
2019-05-15T10:18:13.911Z,45.70
2019-05-15T10:19:18.550Z,45.80
2019-05-15T10:20:20.885Z,45.50
2019-05-15T10:21:23.308Z,46.10
2019-05-15T10:22:28.172Z,45.80
2019-05-15T10:23:30.245Z,46.90
2019-05-15T10:24:32.712Z,46.50
2019-05-15T10:25:35.172Z,46.00
2019-05-15T10:26:39.342Z,47.90
2019-05-15T10:27:41.985Z,46.30
2019-05-15T10:28:44.415Z,45.70
2019-05-15T10:29:48.405Z,45.90
2019-05-15T10:30:51.099Z,46.10
2019-05-15T10:31:53.555Z,46.20
2019-05-15T10:32:56.107Z,46.70
2019-05-15T10:33:58.595Z,46.80
2019-05-15T10:35:02.763Z,46.90
2019-05-15T10:36:05.455Z,47.70
2019-05-15T10:37:08.432Z,47.60
2019-05-15T10:38:11.014Z,47.30
2019-05-15T10:39:13.574Z,46.50
2019-05-15T10:40:16.224Z,46.60
2019-05-15T10:41:19.007Z,46.10
2019-05-15T10:42:21.723Z,46.90
2019-05-15T10:43:24.415Z,46.80
2019-05-15T10:44:28.533Z,46.30
2019-05-15T10:45:31.125Z,46.90
2019-05-15T10:46:33.739Z,47.30
2019-05-15T10:47:38.890Z,46.80
2019-05-15T10:48:40.540Z,46.10
2019-05-15T10:49:43.085Z,47.20
2019-05-15T10:50:45.540Z,45.70
2019-05-15T10:51:48.128Z,46.40
2019-05-15T10:52:50.605Z,46.70
2019-05-15T10:53:53.056Z,46.30
2019-05-15T10:54:58.069Z,46.60
2019-05-15T10:56:02.639Z,46.50
2019-05-15T10:57:05.361Z,47.10
2019-05-15T10:58:14.047Z,46.50
2019-05-15T10:59:13.115Z,47.10
2019-05-15T11:00:19.236Z,47.10
2019-05-15T11:01:20.837Z,47.10
2019-05-15T11:02:25.111Z,47.60
2019-05-15T11:03:29.875Z,47.40
2019-05-15T11:04:31.953Z,47.80
2019-05-15T11:05:44.471Z,47.80
2019-05-15T11:06:38.759Z,47.60
2019-05-15T11:07:41.192Z,47.80
2019-05-15T11:08:43.609Z,48.30
2019-05-15T11:09:48.730Z,48.70
2019-05-15T11:10:50.616Z,48.50
2019-05-15T11:11:53.024Z,48.30
2019-05-15T11:12:55.412Z,48.60
2019-05-15T11:14:00.311Z,48.80
2019-05-15T11:15:02.157Z,49.20
2019-05-15T11:16:04.599Z,49.30
2019-05-15T11:17:07.033Z,49.00
2019-05-15T11:18:09.490Z,49.20
2019-05-15T11:19:11.994Z,49.40
2019-05-15T11:20:14.527Z,48.80
2019-05-15T11:21:19.007Z,48.10
2019-05-15T11:22:21.367Z,46.90
2019-05-15T11:23:23.834Z,47.00
2019-05-15T11:24:28.267Z,47.50
2019-05-15T11:25:30.616Z,48.20
2019-05-15T11:26:33.623Z,47.60
2019-05-15T11:27:38.838Z,48.70
2019-05-15T11:28:40.612Z,48.50
2019-05-15T11:29:43.057Z,48.40
2019-05-15T11:30:48.579Z,48.00
2019-05-15T11:31:49.869Z,49.00
2019-05-15T11:32:52.331Z,49.40
2019-05-15T11:33:54.884Z,49.80
2019-05-15T11:34:58.253Z,49.80
2019-05-15T11:36:05.749Z,50.90
2019-05-15T11:37:05.407Z,49.40
2019-05-15T11:38:10.028Z,48.40
2019-05-15T11:39:12.528Z,49.00
2019-05-15T11:40:15.216Z,49.40
2019-05-15T11:41:19.238Z,49.20
2019-05-15T11:42:22.106Z,49.10
2019-05-15T11:43:24.565Z,47.50
2019-05-15T11:44:28.312Z,47.50
2019-05-15T11:45:30.965Z,47.10
2019-05-15T11:46:33.627Z,47.20
2019-05-15T11:47:39.050Z,48.30
2019-05-15T11:48:41.733Z,46.60
2019-05-15T11:49:44.206Z,46.90
2019-05-15T11:50:46.751Z,46.90
2019-05-15T11:51:49.397Z,46.60
2019-05-15T11:52:52.071Z,45.90
2019-05-15T11:53:54.621Z,46.10
2019-05-15T11:54:58.959Z,46.90
2019-05-15T11:56:03.203Z,47.50
2019-05-15T11:57:08.438Z,47.10
2019-05-15T11:58:10.042Z,47.20
2019-05-15T11:59:12.626Z,47.50
2019-05-15T12:00:26.418Z,47.50
2019-05-15T12:01:22.993Z,46.90
2019-05-15T12:02:25.559Z,47.50
2019-05-15T12:03:29.061Z,47.60
2019-05-15T12:04:34.233Z,48.10
2019-05-15T12:05:38.570Z,48.70
2019-05-15T12:06:40.629Z,49.00
2019-05-15T12:07:43.094Z,48.60
2019-05-15T12:08:45.556Z,48.40
2019-05-15T12:09:48.177Z,48.60
2019-05-15T12:10:50.641Z,48.90
2019-05-15T12:11:53.122Z,48.90
2019-05-15T12:12:55.559Z,49.10
2019-05-15T12:13:58.020Z,47.90
2019-05-15T12:15:00.510Z,48.10
2019-05-15T12:16:02.976Z,48.40
2019-05-15T12:17:12.401Z,48.10
2019-05-15T12:18:09.824Z,48.30
2019-05-15T12:19:17.105Z,48.40
2019-05-15T12:20:19.410Z,49.30
2019-05-15T12:21:21.185Z,49.40
2019-05-15T12:22:23.719Z,49.20
2019-05-15T12:23:28.854Z,48.60
2019-05-15T12:27:18.238Z,48.00
2019-05-15T12:28:18.986Z,47.80
2019-05-15T12:29:21.539Z,48.20
2019-05-15T12:30:24.537Z,48.40
2019-05-15T12:31:27.257Z,47.70
2019-05-15T12:32:36.403Z,48.10
2019-05-15T12:33:34.168Z,48.50
2019-05-15T12:34:38.859Z,49.00
2019-05-15T12:35:41.155Z,49.60
2019-05-15T12:37:48.113Z,49.80
2019-05-15T12:38:50.658Z,49.70
2019-05-15T13:00:00.908Z,50.70
2019-05-15T13:01:14.797Z,50.70
2019-05-15T13:02:08.238Z,51.00
2019-05-15T13:03:10.862Z,51.00
2019-05-15T13:04:13.367Z,51.40
2019-05-15T13:05:15.947Z,51.80
2019-05-15T13:06:19.222Z,51.70
2019-05-15T13:07:21.968Z,52.70
2019-05-15T13:08:24.640Z,52.70
2019-05-15T13:09:27.793Z,53.10
2019-05-15T13:10:30.419Z,53.20
2019-05-15T13:11:32.918Z,52.20
2019-05-15T13:12:38.337Z,51.40
2019-05-15T13:13:39.838Z,50.90
2019-05-15T13:14:42.375Z,50.60
2019-05-15T13:15:44.871Z,50.80
2019-05-15T13:16:48.061Z,51.20
2019-05-15T13:17:52.605Z,51.00
2019-05-15T13:18:55.260Z,50.90
2019-05-15T13:19:58.665Z,51.50
2019-05-15T13:21:01.604Z,51.90
2019-05-15T13:22:17.148Z,51.70
2019-05-15T13:23:08.553Z,51.10
2019-05-15T13:24:11.194Z,50.70
2019-05-15T13:25:13.748Z,50.80
2019-05-15T13:26:23.783Z,50.70
2019-05-15T13:27:20.584Z,50.00
2019-05-15T13:28:23.020Z,50.00
2019-05-15T13:29:25.483Z,50.60
2019-05-15T13:30:30.105Z,50.90
2019-05-15T13:31:34.660Z,49.80
2019-05-15T13:32:40.721Z,50.20
2019-05-15T13:33:41.603Z,50.80
2019-05-15T13:34:44.278Z,50.60
2019-05-15T13:35:48.629Z,50.00
2019-05-15T13:36:51.338Z,50.60
2019-05-15T13:37:53.865Z,49.40
2019-05-15T13:38:57.866Z,49.60
2019-05-15T13:40:00.542Z,49.80
2019-05-15T13:41:02.997Z,49.70
2019-05-15T13:42:05.681Z,49.90
2019-05-15T13:43:08.576Z,50.20
2019-05-15T13:44:11.403Z,50.10
2019-05-15T13:45:14.556Z,50.40
2019-05-15T13:46:20.594Z,50.00
2019-05-15T13:47:21.547Z,50.00
2019-05-15T13:48:24.046Z,50.00
2019-05-15T13:49:28.175Z,49.90
2019-05-15T13:50:30.899Z,49.50
2019-05-15T13:51:33.349Z,49.90
2019-05-15T13:52:35.967Z,49.70
2019-05-15T13:53:39.741Z,50.60
2019-05-15T13:54:42.220Z,50.60
2019-05-15T13:55:44.783Z,50.90
2019-05-15T13:56:48.809Z,50.40
2019-05-15T13:58:18.300Z,50.20
2019-05-15T13:59:38.872Z,50.60
2019-05-15T14:01:09.380Z,50.70
2019-05-15T14:02:32.182Z,50.60
2019-05-15T14:03:35.551Z,51.50
2019-05-15T14:04:38.740Z,50.90
2019-05-15T14:05:44.927Z,50.30
2019-05-15T14:06:45.760Z,49.70
2019-05-15T14:07:50.700Z,49.30
2019-05-15T14:08:52.700Z,49.30
2019-05-15T14:09:55.158Z,49.10
2019-05-15T14:10:58.209Z,50.00